Weber, Minnesota
Current Conditions -  °F | °C
As of 9:14 PM on Monday 20 Oct 2014 (Local Time) from KROS Reporting Station
Scattered Clouds Scattered Clouds  
Wind Chill: 40°   Ceiling: Unl
Heat Index: 40°   Visibility: 10mi
Dew Point: 35°   Wind: 0mph
Humidity: 84%   Direction: NA
Pressure: 30.08"   Gusts: NA
Location:  45.5343°N, 92.8964°W
Report Text: KROS 210214Z AUTO 00000KT 10SM SCT110 04/02 A3008 RMK AO2 T00440019
Loading
Personal Weather Stations






























Interactive Weather Map
Tropical Storm Tracking
New forecast layout! Learn more

10-Day Weather Forecast

Advertisements
Track Severe Weather on mobile